sensor_id;sensor_type;location;lat;lon;timestamp;pressure;altitude;pressure_sealevel;temperature;humidity
76448;BME280;65284;51.040;13.722;2024-03-08T00:00:17;100462.75;;;2.09;78.38
76448;BME280;65284;51.040;13.722;2024-03-08T00:02:47;100458.00;;;2.01;78.70
76448;BME280;65284;51.040;13.722;2024-03-08T00:05:17;100452.84;;;2.00;78.67
76448;BME280;65284;51.040;13.722;2024-03-08T00:07:44;100453.22;;;1.94;79.10
76448;BME280;65284;51.040;13.722;2024-03-08T00:10:12;100453.41;;;1.91;79.30
76448;BME280;65284;51.040;13.722;2024-03-08T00:12:43;100440.59;;;1.86;79.94
76448;BME280;65284;51.040;13.722;2024-03-08T00:15:10;100438.06;;;1.85;80.17
76448;BME280;65284;51.040;13.722;2024-03-08T00:17:37;100447.97;;;1.79;80.07
76448;BME280;65284;51.040;13.722;2024-03-08T00:20:05;100447.22;;;1.77;80.47
76448;BME280;65284;51.040;13.722;2024-03-08T00:22:35;100448.34;;;1.73;80.76
76448;BME280;65284;51.040;13.722;2024-03-08T00:25:03;100448.47;;;1.72;80.85
76448;BME280;65284;51.040;13.722;2024-03-08T00:27:30;100447.78;;;1.68;81.83
76448;BME280;65284;51.040;13.722;2024-03-08T00:30:00;100447.13;;;1.65;81.59
76448;BME280;65284;51.040;13.722;2024-03-08T00:32:27;100449.88;;;1.63;81.70
76448;BME280;65284;51.040;13.722;2024-03-08T00:34:58;100442.94;;;1.62;81.61
76448;BME280;65284;51.040;13.722;2024-03-08T00:37:25;100448.16;;;1.62;81.98
76448;BME280;65284;51.040;13.722;2024-03-08T00:39:52;100450.88;;;1.61;82.25
76448;BME280;65284;51.040;13.722;2024-03-08T00:42:19;100448.47;;;1.57;82.54
76448;BME280;65284;51.040;13.722;2024-03-08T00:44:46;100446.03;;;1.54;82.61
76448;BME280;65284;51.040;13.722;2024-03-08T00:47:13;100442.84;;;1.49;83.13
76448;BME280;65284;51.040;13.722;2024-03-08T00:49:41;100447.22;;;1.49;83.57
76448;BME280;65284;51.040;13.722;2024-03-08T00:52:07;100443.84;;;1.47;83.74
76448;BME280;65284;51.040;13.722;2024-03-08T00:54:34;100438.81;;;1.44;83.59
76448;BME280;65284;51.040;13.722;2024-03-08T00:57:05;100445.91;;;1.42;84.36
76448;BME280;65284;51.040;13.722;2024-03-08T00:59:33;100438.22;;;1.39;84.18
76448;BME280;65284;51.040;13.722;2024-03-08T01:02:00;100436.63;;;1.36;84.31
76448;BME280;65284;51.040;13.722;2024-03-08T01:04:27;100434.50;;;1.28;84.53
76448;BME280;65284;51.040;13.722;2024-03-08T01:06:57;100439.91;;;1.25;85.29
76448;BME280;65284;51.040;13.722;2024-03-08T01:09:24;100445.31;;;1.22;85.42
76448;BME280;65284;51.040;13.722;2024-03-08T01:11:51;100440.28;;;1.19;85.63
76448;BME280;65284;51.040;13.722;2024-03-08T01:14:21;100435.41;;;1.13;86.42
76448;BME280;65284;51.040;13.722;2024-03-08T01:16:49;100423.53;;;1.07;86.65
76448;BME280;65284;51.040;13.722;2024-03-08T01:19:15;100425.31;;;1.07;86.58
76448;BME280;65284;51.040;13.722;2024-03-08T01:21:42;100421.94;;;1.05;87.24
76448;BME280;65284;51.040;13.722;2024-03-08T01:24:08;100418.72;;;1.00;87.56
76448;BME280;65284;51.040;13.722;2024-03-08T01:26:35;100418.72;;;1.00;87.61
76448;BME280;65284;51.040;13.722;2024-03-08T01:29:02;100417.41;;;0.93;87.93
76448;BME280;65284;51.040;13.722;2024-03-08T01:31:30;100413.22;;;0.90;88.25
76448;BME280;65284;51.040;13.722;2024-03-08T01:33:57;100409.00;;;0.87;88.93
76448;BME280;65284;51.040;13.722;2024-03-08T01:36:23;100399.56;;;0.85;88.46
76448;BME280;65284;51.040;13.722;2024-03-08T01:38:53;100397.03;;;0.83;89.23
76448;BME280;65284;51.040;13.722;2024-03-08T01:41:20;100395.34;;;0.82;88.96
76448;BME280;65284;51.040;13.722;2024-03-08T01:43:46;100387.78;;;0.78;89.15
76448;BME280;65284;51.040;13.722;2024-03-08T01:46:16;100388.63;;;0.78;89.26
76448;BME280;65284;51.040;13.722;2024-03-08T01:48:44;100386.94;;;0.77;89.71
76448;BME280;65284;51.040;13.722;2024-03-08T01:51:12;100380.19;;;0.73;89.87
76448;BME280;65284;51.040;13.722;2024-03-08T01:53:39;100379.53;;;0.70;90.26
76448;BME280;65284;51.040;13.722;2024-03-08T01:56:06;100372.81;;;0.65;90.67
76448;BME280;65284;51.040;13.722;2024-03-08T01:58:33;100376.25;;;0.66;91.15
76448;BME280;65284;51.040;13.722;2024-03-08T02:01:00;100378.09;;;0.64;91.26
76448;BME280;65284;51.040;13.722;2024-03-08T02:03:31;100379.06;;;0.63;91.42
76448;BME280;65284;51.040;13.722;2024-03-08T02:05:58;100382.84;;;0.57;91.35
76448;BME280;65284;51.040;13.722;2024-03-08T02:08:27;100369.78;;;0.57;91.89
76448;BME280;65284;51.040;13.722;2024-03-08T02:10:54;100373.59;;;0.52;92.11
76448;BME280;65284;51.040;13.722;2024-03-08T02:13:26;100377.03;;;0.52;92.33
76448;BME280;65284;51.040;13.722;2024-03-08T02:18:19;100370.50;;;0.45;92.47
76448;BME280;65284;51.040;13.722;2024-03-08T02:20:51;100371.41;;;0.44;92.59
76448;BME280;65284;51.040;13.722;2024-03-08T02:23:19;100366.47;;;0.39;93.16
76448;BME280;65284;51.040;13.722;2024-03-08T02:25:46;100360.41;;;0.39;93.33
76448;BME280;65284;51.040;13.722;2024-03-08T02:28:13;100362.41;;;0.34;93.27
76448;BME280;65284;51.040;13.722;2024-03-08T02:30:41;100354.47;;;0.35;93.42
76448;BME280;65284;51.040;13.722;2024-03-08T02:33:07;100358.78;;;0.36;93.47
76448;BME280;65284;51.040;13.722;2024-03-08T02:35:36;100360.91;;;0.30;94.25
76448;BME280;65284;51.040;13.722;2024-03-08T02:38:03;100355.19;;;0.23;94.69
76448;BME280;65284;51.040;13.722;2024-03-08T02:40:30;100349.28;;;0.19;94.71
76448;BME280;65284;51.040;13.722;2024-03-08T02:42:56;100355.34;;;0.20;94.73
76448;BME280;65284;51.040;13.722;2024-03-08T02:45:23;100355.34;;;0.20;94.52
76448;BME280;65284;51.040;13.722;2024-03-08T02:47:50;100354.63;;;0.18;94.83
76448;BME280;65284;51.040;13.722;2024-03-08T02:50:16;100352.19;;;0.15;95.03
76448;BME280;65284;51.040;13.722;2024-03-08T02:52:43;100351.75;;;0.07;95.53
76448;BME280;65284;51.040;13.722;2024-03-08T02:55:09;100356.03;;;0.08;95.68
76448;BME280;65284;51.040;13.722;2024-03-08T02:57:39;100355.22;;;0.07;95.80
76448;BME280;65284;51.040;13.722;2024-03-08T03:00:06;100352.84;;;0.03;96.16
76448;BME280;65284;51.040;13.722;2024-03-08T03:02:36;100350.31;;;0.01;96.02
76448;BME280;65284;51.040;13.722;2024-03-08T03:05:04;100353.00;;;-0.01;96.29
76448;BME280;65284;51.040;13.722;2024-03-08T03:07:33;100350.41;;;-0.01;96.21
76448;BME280;65284;51.040;13.722;2024-03-08T03:10:00;100345.09;;;0.01;96.21
76448;BME280;65284;51.040;13.722;2024-03-08T03:12:28;100339.78;;;0.03;96.17
76448;BME280;65284;51.040;13.722;2024-03-08T03:14:54;100341.72;;;-0.01;96.54
76448;BME280;65284;51.040;13.722;2024-03-08T03:17:23;100344.63;;;-0.06;96.91
76448;BME280;65284;51.040;13.722;2024-03-08T03:19:51;100342.00;;;-0.06;97.07
76448;BME280;65284;51.040;13.722;2024-03-08T03:22:18;100338.34;;;-0.03;97.35
76448;BME280;65284;51.040;13.722;2024-03-08T03:24:45;100339.38;;;-0.06;98.20
76448;BME280;65284;51.040;13.722;2024-03-08T03:27:15;100334.16;;;-0.06;97.70
76448;BME280;65284;51.040;13.722;2024-03-08T03:29:43;100337.50;;;-0.04;98.06
76448;BME280;65284;51.040;13.722;2024-03-08T03:32:13;100332.28;;;-0.04;97.82
76448;BME280;65284;51.040;13.722;2024-03-08T03:34:41;100335.84;;;-0.05;97.59
76448;BME280;65284;51.040;13.722;2024-03-08T03:37:08;100343.09;;;-0.10;97.83
76448;BME280;65284;51.040;13.722;2024-03-08T03:39:35;100333.16;;;-0.19;98.55
76448;BME280;65284;51.040;13.722;2024-03-08T03:42:07;100334.31;;;-0.25;98.45
76448;BME280;65284;51.040;13.722;2024-03-08T03:44:33;100326.25;;;-0.20;99.49
76448;BME280;65284;51.040;13.722;2024-03-08T03:47:00;100331.81;;;-0.26;98.32
76448;BME280;65284;51.040;13.722;2024-03-08T03:49:27;100329.44;;;-0.31;98.61
76448;BME280;65284;51.040;13.722;2024-03-08T03:51:53;100327.94;;;-0.35;98.70
76448;BME280;65284;51.040;13.722;2024-03-08T03:54:20;100329.38;;;-0.29;98.78
76448;BME280;65284;51.040;13.722;2024-03-08T03:56:46;100333.16;;;-0.35;98.97
76448;BME280;65284;51.040;13.722;2024-03-08T03:59:13;100326.06;;;-0.33;99.36
76448;BME280;65284;51.040;13.722;2024-03-08T04:01:42;100326.34;;;-0.37;99.67
76448;BME280;65284;51.040;13.722;2024-03-08T04:04:08;100332.97;;;-0.48;99.73
76448;BME280;65284;51.040;13.722;2024-03-08T04:06:35;100329.44;;;-0.47;100.00
76448;BME280;65284;51.040;13.722;2024-03-08T04:09:01;100327.00;;;-0.50;100.00
76448;BME280;65284;51.040;13.722;2024-03-08T04:11:28;100324.56;;;-0.53;100.00
76448;BME280;65284;51.040;13.722;2024-03-08T04:13:54;100321.19;;;-0.55;100.00
76448;BME280;65284;51.040;13.722;2024-03-08T04:16:21;100320.00;;;-0.49;100.00
76448;BME280;65284;51.040;13.722;2024-03-08T04:18:47;100321.00;;;-0.52;100.00
76448;BME280;65284;51.040;13.722;2024-03-08T04:21:14;100322.13;;;-0.56;100.00
76448;BME280;65284;51.040;13.722;2024-03-08T04:23:40;100321.41;;;-0.59;100.00
76448;BME280;65284;51.040;13.722;2024-03-08T04:26:07;100330.09;;;-0.59;100.00
76448;BME280;65284;51.040;13.722;2024-03-08T04:28:35;100326.91;;;-0.64;100.00
76448;BME280;65284;51.040;13.722;2024-03-08T04:31:03;100325.69;;;-0.74;100.00
76448;BME280;65284;51.040;13.722;2024-03-08T04:33:29;100324.78;;;-0.73;100.00
76448;BME280;65284;51.040;13.722;2024-03-08T04:35:56;100322.16;;;-0.73;100.00
76448;BME280;65284;51.040;13.722;2024-03-08T04:38:23;100315.94;;;-0.71;100.00
76448;BME280;65284;51.040;13.722;2024-03-08T04:40:49;100318.78;;;-0.75;100.00
76448;BME280;65284;51.040;13.722;2024-03-08T04:43:16;100319.72;;;-0.76;100.00
76448;BME280;65284;51.040;13.722;2024-03-08T04:45:44;100320.47;;;-0.74;100.00
76448;BME280;65284;51.040;13.722;2024-03-08T04:48:11;100314.69;;;-0.79;100.00
76448;BME280;65284;51.040;13.722;2024-03-08T04:50:38;100314.91;;;-0.84;100.00
76448;BME280;65284;51.040;13.722;2024-03-08T04:53:04;100319.06;;;-0.80;100.00
76448;BME280;65284;51.040;13.722;2024-03-08T04:55:34;100317.28;;;-0.79;100.00
76448;BME280;65284;51.040;13.722;2024-03-08T04:58:01;100314.69;;;-0.79;100.00
76448;BME280;65284;51.040;13.722;2024-03-08T05:00:27;100313.41;;;-0.72;100.00
76448;BME280;65284;51.040;13.722;2024-03-08T05:02:54;100316.78;;;-0.70;100.00
76448;BME280;65284;51.040;13.722;2024-03-08T05:05:20;100306.34;;;-0.70;100.00
76448;BME280;65284;51.040;13.722;2024-03-08T05:07:47;100306.97;;;-0.65;100.00
76448;BME280;65284;51.040;13.722;2024-03-08T05:10:14;100303.31;;;-0.78;100.00
76448;BME280;65284;51.040;13.722;2024-03-08T05:12:44;100303.16;;;-0.75;100.00
76448;BME280;65284;51.040;13.722;2024-03-08T05:15:10;100300.69;;;-0.78;100.00
76448;BME280;65284;51.040;13.722;2024-03-08T05:17:37;100303.47;;;-0.81;100.00
76448;BME280;65284;51.040;13.722;2024-03-08T05:20:03;100306.06;;;-0.81;100.00
76448;BME280;65284;51.040;13.722;2024-03-08T05:22:30;100309.69;;;-0.84;100.00
76448;BME280;65284;51.040;13.722;2024-03-08T05:24:56;100296.59;;;-0.82;100.00
76448;BME280;65284;51.040;13.722;2024-03-08T05:27:23;100300.88;;;-0.81;100.00
76448;BME280;65284;51.040;13.722;2024-03-08T05:29:49;100298.25;;;-0.81;100.00
76448;BME280;65284;51.040;13.722;2024-03-08T05:32:16;100296.59;;;-0.82;100.00
76448;BME280;65284;51.040;13.722;2024-03-08T05:34:43;100296.75;;;-0.85;100.00
76448;BME280;65284;51.040;13.722;2024-03-08T05:37:11;100296.81;;;-0.87;100.00
76448;BME280;65284;51.040;13.722;2024-03-08T05:39:37;100294.53;;;-0.93;100.00
76448;BME280;65284;51.040;13.722;2024-03-08T05:42:04;100303.19;;;-0.93;100.00
76448;BME280;65284;51.040;13.722;2024-03-08T05:44:30;100292.75;;;-0.93;100.00
76448;BME280;65284;51.040;13.722;2024-03-08T05:46:57;100297.91;;;-0.91;100.00
76448;BME280;65284;51.040;13.722;2024-03-08T05:49:24;100295.84;;;-1.02;100.00
76448;BME280;65284;51.040;13.722;2024-03-08T05:51:51;100291.84;;;-0.92;100.00
76448;BME280;65284;51.040;13.722;2024-03-08T05:54:17;100286.22;;;-0.84;100.00
76448;BME280;65284;51.040;13.722;2024-03-08T05:56:47;100286.88;;;-0.80;100.00
76448;BME280;65284;51.040;13.722;2024-03-08T05:59:14;100288.59;;;-0.79;100.00
76448;BME280;65284;51.040;13.722;2024-03-08T06:01:40;100291.94;;;-0.77;100.00
76448;BME280;65284;51.040;13.722;2024-03-08T06:04:08;100298.75;;;-0.75;100.00
76448;BME280;65284;51.040;13.722;2024-03-08T06:06:37;100294.88;;;-0.83;100.00
76448;BME280;65284;51.040;13.722;2024-03-08T06:09:04;100303.47;;;-0.81;100.00
76448;BME280;65284;51.040;13.722;2024-03-08T06:11:37;100306.69;;;-0.76;100.00
76448;BME280;65284;51.040;13.722;2024-03-08T06:14:04;100308.34;;;-0.75;100.00
76448;BME280;65284;51.040;13.722;2024-03-08T06:16:32;100304.06;;;-0.76;100.00
76448;BME280;65284;51.040;13.722;2024-03-08T06:19:00;100304.25;;;-0.79;100.00
76448;BME280;65284;51.040;13.722;2024-03-08T06:21:28;100293.72;;;-0.78;100.00
76448;BME280;65284;51.040;13.722;2024-03-08T06:23:55;100289.34;;;-0.77;100.00
76448;BME280;65284;51.040;13.722;2024-03-08T06:26:24;100295.41;;;-0.77;100.00
76448;BME280;65284;51.040;13.722;2024-03-08T06:28:55;100288.25;;;-0.73;100.00
76448;BME280;65284;51.040;13.722;2024-03-08T06:31:22;100294.22;;;-0.71;100.00
76448;BME280;65284;51.040;13.722;2024-03-08T06:33:48;100290.19;;;-0.77;100.00
76448;BME280;65284;51.040;13.722;2024-03-08T06:36:21;100284.88;;;-0.75;100.00
76448;BME280;65284;51.040;13.722;2024-03-08T06:38:49;100284.13;;;-0.77;100.00
76448;BME280;65284;51.040;13.722;2024-03-08T06:41:15;100275.06;;;-0.70;100.00
76448;BME280;65284;51.040;13.722;2024-03-08T06:43:43;100284.72;;;-0.72;100.00
76448;BME280;65284;51.040;13.722;2024-03-08T06:46:09;100284.56;;;-0.69;100.00
76448;BME280;65284;51.040;13.722;2024-03-08T06:48:39;100287.84;;;-0.65;100.00
76448;BME280;65284;51.040;13.722;2024-03-08T06:51:06;100286.00;;;-0.63;100.00
76448;BME280;65284;51.040;13.722;2024-03-08T06:53:32;100284.06;;;-0.60;100.00
76448;BME280;65284;51.040;13.722;2024-03-08T06:56:02;100277.94;;;-0.59;100.00
76448;BME280;65284;51.040;13.722;2024-03-08T06:58:28;100276.59;;;-0.50;100.00
76448;BME280;65284;51.040;13.722;2024-03-08T07:00:55;100271.88;;;-0.43;100.00
76448;BME280;65284;51.040;13.722;2024-03-08T07:03:24;100277.69;;;-0.38;99.82
76448;BME280;65284;51.040;13.722;2024-03-08T07:05:52;100275.75;;;-0.35;99.73
76448;BME280;65284;51.040;13.722;2024-03-08T07:08:19;100275.66;;;-0.33;99.48
76448;BME280;65284;51.040;13.722;2024-03-08T07:10:48;100271.09;;;-0.30;99.09
76448;BME280;65284;51.040;13.722;2024-03-08T07:13:15;100266.75;;;-0.29;99.84
76448;BME280;65284;51.040;13.722;2024-03-08T07:15:43;100267.91;;;-0.19;99.19
76448;BME280;65284;51.040;13.722;2024-03-08T07:18:10;100266.78;;;-0.15;98.99
76448;BME280;65284;51.040;13.722;2024-03-08T07:20:41;100258.94;;;-0.15;98.85
76448;BME280;65284;51.040;13.722;2024-03-08T07:23:08;100265.44;;;-0.06;98.89
76448;BME280;65284;51.040;13.722;2024-03-08T07:25:35;100260.78;;;-0.01;98.68
76448;BME280;65284;51.040;13.722;2024-03-08T07:28:01;100262.41;;;0.02;98.50
76448;BME280;65284;51.040;13.722;2024-03-08T07:30:28;100264.06;;;0.03;98.43
76448;BME280;65284;51.040;13.722;2024-03-08T07:33:11;100266.31;;;0.09;98.41
76448;BME280;65284;51.040;13.722;2024-03-08T07:35:41;100257.31;;;0.14;97.97
76448;BME280;65284;51.040;13.722;2024-03-08T07:38:09;100261.16;;;0.23;97.93
76448;BME280;65284;51.040;13.722;2024-03-08T07:40:39;100260.63;;;0.32;97.75
76448;BME280;65284;51.040;13.722;2024-03-08T07:43:10;100250.66;;;0.39;97.59
76448;BME280;65284;51.040;13.722;2024-03-08T07:45:38;100256.56;;;0.42;96.93
76448;BME280;65284;51.040;13.722;2024-03-08T07:48:05;100252.94;;;0.59;97.46
76448;BME280;65284;51.040;13.722;2024-03-08T07:50:37;100251.00;;;0.63;96.75
76448;BME280;65284;51.040;13.722;2024-03-08T07:53:06;100248.19;;;0.66;95.75
76448;BME280;65284;51.040;13.722;2024-03-08T07:55:33;100245.09;;;0.74;95.25
76448;BME280;65284;51.040;13.722;2024-03-08T07:58:02;100247.06;;;0.84;94.88
76448;BME280;65284;51.040;13.722;2024-03-08T08:00:29;100241.84;;;0.84;94.49
76448;BME280;65284;51.040;13.722;2024-03-08T08:02:57;100241.28;;;0.94;93.92
76448;BME280;65284;51.040;13.722;2024-03-08T08:05:24;100235.09;;;1.09;94.34
76448;BME280;65284;51.040;13.722;2024-03-08T08:07:51;100241.16;;;1.09;93.55
76448;BME280;65284;51.040;13.722;2024-03-08T08:10:19;100238.09;;;1.17;93.14
76448;BME280;65284;51.040;13.722;2024-03-08T08:12:49;100242.75;;;1.26;92.73
76448;BME280;65284;51.040;13.722;2024-03-08T08:15:15;100232.84;;;1.31;92.31
76448;BME280;65284;51.040;13.722;2024-03-08T08:17:42;100231.69;;;1.35;92.17
76448;BME280;65284;51.040;13.722;2024-03-08T08:20:10;100227.59;;;1.46;92.11
76448;BME280;65284;51.040;13.722;2024-03-08T08:22:41;100226.34;;;1.51;91.54
76448;BME280;65284;51.040;13.722;2024-03-08T08:25:09;100214.84;;;1.54;91.32
76448;BME280;65284;51.040;13.722;2024-03-08T08:27:39;100209.44;;;1.57;90.93
76448;BME280;65284;51.040;13.722;2024-03-08T08:30:06;100218.16;;;1.70;91.77
76448;BME280;65284;51.040;13.722;2024-03-08T08:32:35;100210.28;;;1.70;90.70
76448;BME280;65284;51.040;13.722;2024-03-08T08:35:06;100213.06;;;1.81;90.20
76448;BME280;65284;51.040;13.722;2024-03-08T08:37:32;100212.03;;;1.84;89.81
76448;BME280;65284;51.040;13.722;2024-03-08T08:40:00;100211.50;;;1.92;89.84
76448;BME280;65284;51.040;13.722;2024-03-08T08:42:31;100209.97;;;2.02;89.63
76448;BME280;65284;51.040;13.722;2024-03-08T08:44:58;100198.88;;;2.11;88.86
76448;BME280;65284;51.040;13.722;2024-03-08T08:47:30;100205.59;;;2.15;89.03
76448;BME280;65284;51.040;13.722;2024-03-08T08:49:57;100196.47;;;2.21;88.48
76448;BME280;65284;51.040;13.722;2024-03-08T08:52:23;100197.66;;;2.30;87.98
76448;BME280;65284;51.040;13.722;2024-03-08T08:54:52;100189.91;;;2.41;89.69
76448;BME280;65284;51.040;13.722;2024-03-08T08:57:19;100186.56;;;2.52;88.95
76448;BME280;65284;51.040;13.722;2024-03-08T08:59:46;100181.72;;;2.58;88.90
76448;BME280;65284;51.040;13.722;2024-03-08T09:02:13;100186.75;;;2.61;87.34
76448;BME280;65284;51.040;13.722;2024-03-08T09:04:47;100177.22;;;2.73;86.12
76448;BME280;65284;51.040;13.722;2024-03-08T09:07:14;100168.78;;;2.81;85.62
76448;BME280;65284;51.040;13.722;2024-03-08T09:09:44;100171.94;;;2.86;85.91
76448;BME280;65284;51.040;13.722;2024-03-08T09:12:11;100165.56;;;2.90;85.44
76448;BME280;65284;51.040;13.722;2024-03-08T09:14:40;100165.94;;;2.96;85.21
76448;BME280;65284;51.040;13.722;2024-03-08T09:17:08;100164.78;;;3.01;85.23
76448;BME280;65284;51.040;13.722;2024-03-08T09:19:35;100170.53;;;3.06;84.80
76448;BME280;65284;51.040;13.722;2024-03-08T09:22:04;100162.31;;;3.10;84.46
76448;BME280;65284;51.040;13.722;2024-03-08T09:24:30;100161.78;;;3.18;83.86
76448;BME280;65284;51.040;13.722;2024-03-08T09:26:57;100157.88;;;3.24;83.68
76448;BME280;65284;51.040;13.722;2024-03-08T09:29:25;100158.41;;;3.29;82.78
76448;BME280;65284;51.040;13.722;2024-03-08T09:31:52;100156.25;;;3.34;82.97
76448;BME280;65284;51.040;13.722;2024-03-08T09:34:18;100151.31;;;3.42;83.16
76448;BME280;65284;51.040;13.722;2024-03-08T09:36:50;100150.84;;;3.48;82.49
76448;BME280;65284;51.040;13.722;2024-03-08T09:39:18;100139.06;;;3.54;81.64
76448;BME280;65284;51.040;13.722;2024-03-08T09:41:49;100137.56;;;3.62;80.89
76448;BME280;65284;51.040;13.722;2024-03-08T09:44:15;100138.06;;;3.68;81.50
76448;BME280;65284;51.040;13.722;2024-03-08T09:46:42;100128.16;;;3.71;81.24
76448;BME280;65284;51.040;13.722;2024-03-08T09:49:09;100129.59;;;3.75;80.51
76448;BME280;65284;51.040;13.722;2024-03-08T09:51:38;100134.78;;;3.88;81.17
76448;BME280;65284;51.040;13.722;2024-03-08T09:54:07;100134.88;;;3.86;79.68
76448;BME280;65284;51.040;13.722;2024-03-08T09:56:46;100131.69;;;3.94;78.73
76448;BME280;65284;51.040;13.722;2024-03-08T09:59:13;100127.53;;;4.03;78.88
76448;BME280;65284;51.040;13.722;2024-03-08T10:01:49;100127.34;;;4.17;78.06
76448;BME280;65284;51.040;13.722;2024-03-08T10:04:16;100126.47;;;4.17;78.19
76448;BME280;65284;51.040;13.722;2024-03-08T10:06:43;100118.72;;;4.15;78.38
76448;BME280;65284;51.040;13.722;2024-03-08T10:09:10;100118.84;;;4.25;78.12
76448;BME280;65284;51.040;13.722;2024-03-08T10:11:40;100116.09;;;4.38;76.91
76448;BME280;65284;51.040;13.722;2024-03-08T10:14:08;100109.56;;;4.32;76.63
76448;BME280;65284;51.040;13.722;2024-03-08T10:16:35;100111.72;;;4.38;76.54
76448;BME280;65284;51.040;13.722;2024-03-08T10:19:02;100098.66;;;4.48;76.40
76448;BME280;65284;51.040;13.722;2024-03-08T10:21:29;100096.38;;;4.54;76.20
76448;BME280;65284;51.040;13.722;2024-03-08T10:23:56;100093.53;;;4.57;76.10
76448;BME280;65284;51.040;13.722;2024-03-08T10:26:22;100086.34;;;4.60;75.84
76448;BME280;65284;51.040;13.722;2024-03-08T10:28:51;100090.88;;;4.69;76.02
76448;BME280;65284;51.040;13.722;2024-03-08T10:31:19;100086.59;;;4.68;75.83
76448;BME280;65284;51.040;13.722;2024-03-08T10:33:47;100090.41;;;4.75;75.60
76448;BME280;65284;51.040;13.722;2024-03-08T10:36:14;100081.06;;;4.82;74.66
76448;BME280;65284;51.040;13.722;2024-03-08T10:38:51;100086.09;;;4.85;74.14
76448;BME280;65284;51.040;13.722;2024-03-08T10:41:20;100084.28;;;4.97;73.27
76448;BME280;65284;51.040;13.722;2024-03-08T10:44:10;100079.84;;;4.97;73.51
76448;BME280;65284;51.040;13.722;2024-03-08T10:49:30;100075.25;;;5.11;73.57
76448;BME280;65284;51.040;13.722;2024-03-08T10:52:03;100069.75;;;5.14;73.24
76448;BME280;65284;51.040;13.722;2024-03-08T10:54:31;100061.97;;;5.12;73.09
76448;BME280;65284;51.040;13.722;2024-03-08T10:56:59;100065.66;;;5.21;71.85
76448;BME280;65284;51.040;13.722;2024-03-08T10:59:26;100066.50;;;5.21;72.63
76448;BME280;65284;51.040;13.722;2024-03-08T11:01:53;100055.31;;;5.29;71.64
76448;BME280;65284;51.040;13.722;2024-03-08T11:04:20;100063.22;;;5.29;71.61
76448;BME280;65284;51.040;13.722;2024-03-08T11:06:50;100060.31;;;5.32;72.47
76448;BME280;65284;51.040;13.722;2024-03-08T11:09:36;100060.28;;;5.43;71.14
76448;BME280;65284;51.040;13.722;2024-03-08T11:12:29;100049.63;;;5.45;71.09
76448;BME280;65284;51.040;13.722;2024-03-08T11:14:59;100047.31;;;5.52;71.10
76448;BME280;65284;51.040;13.722;2024-03-08T11:17:40;100049.44;;;5.58;70.52
76448;BME280;65284;51.040;13.722;2024-03-08T11:20:11;100046.56;;;5.61;70.36
76448;BME280;65284;51.040;13.722;2024-03-08T11:22:48;100045.84;;;5.59;70.22
76448;BME280;65284;51.040;13.722;2024-03-08T11:25:50;100030.50;;;5.64;70.10
76448;BME280;65284;51.040;13.722;2024-03-08T11:28:20;100033.00;;;5.65;70.37
76448;BME280;65284;51.040;13.722;2024-03-08T11:33:30;100022.53;;;5.75;70.03
76448;BME280;65284;51.040;13.722;2024-03-08T11:38:42;100023.09;;;5.79;70.23
76448;BME280;65284;51.040;13.722;2024-03-08T11:41:10;100011.19;;;5.84;69.24
76448;BME280;65284;51.040;13.722;2024-03-08T11:43:44;100002.78;;;5.90;69.91
76448;BME280;65284;51.040;13.722;2024-03-08T11:46:12;100001.78;;;5.91;69.61
76448;BME280;65284;51.040;13.722;2024-03-08T11:48:43;99998.84;;;6.06;69.29
76448;BME280;65284;51.040;13.722;2024-03-08T11:51:15;99997.75;;;6.08;68.36
76448;BME280;65284;51.040;13.722;2024-03-08T11:53:41;99998.31;;;6.12;68.41
76448;BME280;65284;51.040;13.722;2024-03-08T11:56:13;99995.94;;;6.09;67.55
76448;BME280;65284;51.040;13.722;2024-03-08T11:58:41;99983.19;;;6.14;66.69
76448;BME280;65284;51.040;13.722;2024-03-08T12:01:09;99981.13;;;6.18;67.16
76448;BME280;65284;51.040;13.722;2024-03-08T12:03:42;99979.09;;;6.21;67.29
76448;BME280;65284;51.040;13.722;2024-03-08T12:06:12;99974.50;;;6.23;67.36
76448;BME280;65284;51.040;13.722;2024-03-08T12:08:40;99963.41;;;6.29;66.85
76448;BME280;65284;51.040;13.722;2024-03-08T12:11:07;99955.75;;;6.26;66.88
76448;BME280;65284;51.040;13.722;2024-03-08T12:13:36;99963.41;;;6.29;66.06
76448;BME280;65284;51.040;13.722;2024-03-08T12:16:03;99955.94;;;6.34;66.71
76448;BME280;65284;51.040;13.722;2024-03-08T12:18:34;99959.00;;;6.49;65.67
76448;BME280;65284;51.040;13.722;2024-03-08T12:21:07;99960.13;;;6.47;65.41
76448;BME280;65284;51.040;13.722;2024-03-08T12:23:35;99952.47;;;6.53;64.53
76448;BME280;65284;51.040;13.722;2024-03-08T12:26:15;99948.47;;;6.59;64.46
76448;BME280;65284;51.040;13.722;2024-03-08T12:28:43;99940.97;;;6.64;64.47
76448;BME280;65284;51.040;13.722;2024-03-08T12:31:16;99946.25;;;6.64;64.01
76448;BME280;65284;51.040;13.722;2024-03-08T12:33:53;99941.53;;;6.68;64.10
76448;BME280;65284;51.040;13.722;2024-03-08T12:36:23;99937.94;;;6.78;64.27
76448;BME280;65284;51.040;13.722;2024-03-08T12:38:50;99934.31;;;6.79;63.89
76448;BME280;65284;51.040;13.722;2024-03-08T12:41:20;99922.94;;;6.89;62.68
76448;BME280;65284;51.040;13.722;2024-03-08T12:43:48;99931.81;;;6.88;63.16
76448;BME280;65284;51.040;13.722;2024-03-08T12:46:21;99933.50;;;6.89;62.76
76448;BME280;65284;51.040;13.722;2024-03-08T12:48:53;99915.97;;;6.97;62.42
76448;BME280;65284;51.040;13.722;2024-03-08T12:51:21;99915.16;;;6.97;63.03
76448;BME280;65284;51.040;13.722;2024-03-08T12:53:47;99909.72;;;7.08;61.83
76448;BME280;65284;51.040;13.722;2024-03-08T12:56:20;99901.38;;;7.03;62.59
76448;BME280;65284;51.040;13.722;2024-03-08T12:58:54;99906.38;;;7.06;64.10
76448;BME280;65284;51.040;13.722;2024-03-08T13:01:21;99904.88;;;7.13;63.46